sensor_id;sensor_type;location;lat;lon;timestamp;pressure;altitude;pressure_sealevel;temperature;humidity
73171;BME280;61381;50.118;19.962;2023-08-12T00:04:16;99101.50;;;17.04;99.13
73171;BME280;61381;50.118;19.962;2023-08-12T00:09:17;99100.03;;;16.89;99.58
73171;BME280;61381;50.118;19.962;2023-08-12T00:14:18;99090.59;;;16.55;100.00
73171;BME280;61381;50.118;19.962;2023-08-12T00:19:20;99088.91;;;16.68;100.00
73171;BME280;61381;50.118;19.962;2023-08-12T00:24:21;99092.06;;;16.39;100.00
73171;BME280;61381;50.118;19.962;2023-08-12T00:29:22;99081.56;;;16.37;100.00
73171;BME280;61381;50.118;19.962;2023-08-12T00:34:24;99074.91;;;16.44;99.48
73171;BME280;61381;50.118;19.962;2023-08-12T00:39:25;99082.66;;;16.36;99.24
73171;BME280;61381;50.118;19.962;2023-08-12T00:44:26;99065.19;;;16.20;99.46
73171;BME280;61381;50.118;19.962;2023-08-12T00:49:28;99062.25;;;16.08;100.00
73171;BME280;61381;50.118;19.962;2023-08-12T00:54:29;99070.78;;;16.01;100.00
73171;BME280;61381;50.118;19.962;2023-08-12T00:59:30;99068.13;;;15.87;100.00
73171;BME280;61381;50.118;19.962;2023-08-12T01:04:33;99050.06;;;15.60;100.00
73171;BME280;61381;50.118;19.962;2023-08-12T01:09:34;99052.44;;;15.61;100.00
73171;BME280;61381;50.118;19.962;2023-08-12T01:14:41;99049.53;;;15.72;100.00
73171;BME280;61381;50.118;19.962;2023-08-12T01:19:47;99052.47;;;15.47;100.00
73171;BME280;61381;50.118;19.962;2023-08-12T01:24:51;99055.47;;;15.46;100.00
73171;BME280;61381;50.118;19.962;2023-08-12T01:29:52;99059.69;;;15.38;100.00
73171;BME280;61381;50.118;19.962;2023-08-12T01:35:00;99060.47;;;15.39;100.00
73171;BME280;61381;50.118;19.962;2023-08-12T01:40:04;99060.69;;;15.42;100.00
73171;BME280;61381;50.118;19.962;2023-08-12T01:45:06;99054.41;;;15.33;100.00
73171;BME280;61381;50.118;19.962;2023-08-12T01:50:08;99065.56;;;15.40;100.00
73171;BME280;61381;50.118;19.962;2023-08-12T01:55:10;99062.38;;;15.38;100.00
73171;BME280;61381;50.118;19.962;2023-08-12T02:00:12;99063.09;;;15.30;100.00
73171;BME280;61381;50.118;19.962;2023-08-12T02:05:13;99064.78;;;15.26;100.00
73171;BME280;61381;50.118;19.962;2023-08-12T02:10:15;99065.28;;;15.14;100.00
73171;BME280;61381;50.118;19.962;2023-08-12T02:15:16;99060.38;;;15.02;100.00
73171;BME280;61381;50.118;19.962;2023-08-12T02:20:17;99063.59;;;15.18;100.00
73171;BME280;61381;50.118;19.962;2023-08-12T02:25:19;99072.00;;;15.30;100.00
73171;BME280;61381;50.118;19.962;2023-08-12T02:30:20;99062.22;;;15.21;100.00
73171;BME280;61381;50.118;19.962;2023-08-12T02:35:21;99070.91;;;15.18;100.00
73171;BME280;61381;50.118;19.962;2023-08-12T02:40:23;99081.19;;;15.15;100.00
73171;BME280;61381;50.118;19.962;2023-08-12T02:45:24;99079.00;;;15.31;100.00
73171;BME280;61381;50.118;19.962;2023-08-12T02:50:25;99082.38;;;15.09;100.00
73171;BME280;61381;50.118;19.962;2023-08-12T02:55:28;99083.16;;;14.96;100.00
73171;BME280;61381;50.118;19.962;2023-08-12T03:00:28;99085.25;;;14.85;100.00
73171;BME280;61381;50.118;19.962;2023-08-12T03:05:30;99085.69;;;14.59;100.00
73171;BME280;61381;50.118;19.962;2023-08-12T03:10:33;99088.47;;;14.54;100.00
73171;BME280;61381;50.118;19.962;2023-08-12T03:15:34;99091.53;;;14.48;100.00
73171;BME280;61381;50.118;19.962;2023-08-12T03:20:35;99083.03;;;14.40;100.00
73171;BME280;61381;50.118;19.962;2023-08-12T03:25:38;99090.56;;;14.57;100.00
73171;BME280;61381;50.118;19.962;2023-08-12T03:30:39;99095.75;;;14.54;100.00
73171;BME280;61381;50.118;19.962;2023-08-12T03:35:44;99105.31;;;14.46;100.00
73171;BME280;61381;50.118;19.962;2023-08-12T03:40:46;99100.34;;;14.53;100.00
73171;BME280;61381;50.118;19.962;2023-08-12T03:45:47;99098.91;;;14.61;100.00
73171;BME280;61381;50.118;19.962;2023-08-12T03:50:49;99097.47;;;14.96;100.00
73171;BME280;61381;50.118;19.962;2023-08-12T03:55:51;99102.16;;;15.05;100.00
73171;BME280;61381;50.118;19.962;2023-08-12T04:00:52;99098.38;;;15.20;100.00
73171;BME280;61381;50.118;19.962;2023-08-12T04:05:53;99104.28;;;15.22;100.00
73171;BME280;61381;50.118;19.962;2023-08-12T04:10:55;99105.88;;;15.09;100.00
73171;BME280;61381;50.118;19.962;2023-08-12T04:15:56;99095.78;;;15.42;100.00
73171;BME280;61381;50.118;19.962;2023-08-12T04:20:57;99100.47;;;15.64;99.52
73171;BME280;61381;50.118;19.962;2023-08-12T04:25:59;99103.03;;;15.97;100.00
73171;BME280;61381;50.118;19.962;2023-08-12T04:31:00;99104.00;;;18.33;93.35
73171;BME280;61381;50.118;19.962;2023-08-12T04:36:01;99126.06;;;22.03;75.61
73171;BME280;61381;50.118;19.962;2023-08-12T04:41:03;99132.75;;;24.84;61.48
73171;BME280;61381;50.118;19.962;2023-08-12T04:46:04;99140.22;;;25.30;54.00
73171;BME280;61381;50.118;19.962;2023-08-12T04:51:05;99151.44;;;26.28;49.66
73171;BME280;61381;50.118;19.962;2023-08-12T04:56:07;99156.66;;;27.56;44.45
73171;BME280;61381;50.118;19.962;2023-08-12T05:01:08;99152.09;;;27.79;43.59
73171;BME280;61381;50.118;19.962;2023-08-12T05:06:09;99160.75;;;28.58;41.92
73171;BME280;61381;50.118;19.962;2023-08-12T05:11:11;99163.50;;;28.58;42.15
73171;BME280;61381;50.118;19.962;2023-08-12T05:16:12;99159.25;;;29.90;39.81
73171;BME280;61381;50.118;19.962;2023-08-12T05:21:13;99165.16;;;29.92;38.41
73171;BME280;61381;50.118;19.962;2023-08-12T05:26:16;99164.34;;;30.10;38.16
73171;BME280;61381;50.118;19.962;2023-08-12T05:31:16;99171.84;;;30.94;37.25
73171;BME280;61381;50.118;19.962;2023-08-12T05:36:17;99168.47;;;30.61;37.58
73171;BME280;61381;50.118;19.962;2023-08-12T05:41:20;99161.94;;;30.15;38.87
73171;BME280;61381;50.118;19.962;2023-08-12T05:46:21;99165.41;;;31.11;37.57
73171;BME280;61381;50.118;19.962;2023-08-12T05:51:22;99178.69;;;31.35;36.34
73171;BME280;61381;50.118;19.962;2023-08-12T05:56:24;99168.81;;;31.34;36.82
73171;BME280;61381;50.118;19.962;2023-08-12T06:01:25;99169.03;;;31.57;36.30
73171;BME280;61381;50.118;19.962;2023-08-12T06:06:26;99167.72;;;31.69;35.89
73171;BME280;61381;50.118;19.962;2023-08-12T06:11:28;99160.31;;;31.59;36.16
73171;BME280;61381;50.118;19.962;2023-08-12T06:16:29;99151.78;;;29.87;39.84
73171;BME280;61381;50.118;19.962;2023-08-12T06:21:29;99142.66;;;28.64;43.97
73171;BME280;61381;50.118;19.962;2023-08-12T06:26:32;99139.69;;;27.02;49.86
73171;BME280;61381;50.118;19.962;2023-08-12T06:31:33;99136.81;;;27.92;48.40
73171;BME280;61381;50.118;19.962;2023-08-12T06:36:34;99136.66;;;30.17;42.57
73171;BME280;61381;50.118;19.962;2023-08-12T06:41:36;99161.63;;;31.85;37.65
73171;BME280;61381;50.118;19.962;2023-08-12T06:46:37;99151.69;;;31.46;38.84
73171;BME280;61381;50.118;19.962;2023-08-12T06:51:37;99148.16;;;31.42;39.32
73171;BME280;61381;50.118;19.962;2023-08-12T06:56:40;99159.31;;;33.31;34.95
73171;BME280;61381;50.118;19.962;2023-08-12T07:01:41;99151.06;;;33.27;33.98
73171;BME280;61381;50.118;19.962;2023-08-12T07:06:42;99153.13;;;33.67;35.08
73171;BME280;61381;50.118;19.962;2023-08-12T07:11:44;99148.44;;;31.96;36.53
73171;BME280;61381;50.118;19.962;2023-08-12T07:16:45;99143.91;;;32.44;34.55
73171;BME280;61381;50.118;19.962;2023-08-12T07:21:45;99157.03;;;34.70;30.84
73171;BME280;61381;50.118;19.962;2023-08-12T07:26:48;99149.91;;;34.12;32.45
73171;BME280;61381;50.118;19.962;2023-08-12T07:31:49;99146.97;;;31.85;36.17
73171;BME280;61381;50.118;19.962;2023-08-12T07:36:49;99137.94;;;32.46;34.76
73171;BME280;61381;50.118;19.962;2023-08-12T07:41:52;99147.69;;;32.58;33.65
73171;BME280;61381;50.118;19.962;2023-08-12T07:46:53;99154.91;;;33.33;33.59
73171;BME280;61381;50.118;19.962;2023-08-12T07:51:53;99150.06;;;34.05;32.08
73171;BME280;61381;50.118;19.962;2023-08-12T07:56:56;99142.75;;;32.72;34.85
73171;BME280;61381;50.118;19.962;2023-08-12T08:01:57;99122.47;;;33.74;32.87
73171;BME280;61381;50.118;19.962;2023-08-12T08:06:57;99137.78;;;34.79;31.62
73171;BME280;61381;50.118;19.962;2023-08-12T08:12:00;99143.44;;;35.08;30.55
73171;BME280;61381;50.118;19.962;2023-08-12T08:17:01;99147.47;;;35.69;29.16
73171;BME280;61381;50.118;19.962;2023-08-12T08:22:02;99134.53;;;33.64;31.97
73171;BME280;61381;50.118;19.962;2023-08-12T08:27:04;99124.66;;;33.83;30.51
73171;BME280;61381;50.118;19.962;2023-08-12T08:32:06;99110.25;;;32.11;33.23
73171;BME280;61381;50.118;19.962;2023-08-12T08:37:07;99106.72;;;32.07;33.22
73171;BME280;61381;50.118;19.962;2023-08-12T08:42:09;99112.81;;;32.57;30.82
73171;BME280;61381;50.118;19.962;2023-08-12T08:47:11;99113.28;;;33.06;30.26
73171;BME280;61381;50.118;19.962;2023-08-12T08:52:14;99112.06;;;32.25;29.91
73171;BME280;61381;50.118;19.962;2023-08-12T08:57:17;99106.09;;;33.09;29.82
73171;BME280;61381;50.118;19.962;2023-08-12T09:02:19;99103.97;;;33.64;28.47
73171;BME280;61381;50.118;19.962;2023-08-12T09:07:21;99104.94;;;33.97;27.83
73171;BME280;61381;50.118;19.962;2023-08-12T09:12:24;99103.06;;;33.90;27.82
73171;BME280;61381;50.118;19.962;2023-08-12T09:17:25;99089.84;;;32.56;29.77
73171;BME280;61381;50.118;19.962;2023-08-12T09:22:26;99093.47;;;32.22;28.25
73171;BME280;61381;50.118;19.962;2023-08-12T09:27:30;99096.28;;;32.49;29.33
73171;BME280;61381;50.118;19.962;2023-08-12T09:32:30;99089.94;;;31.49;30.53
73171;BME280;61381;50.118;19.962;2023-08-12T09:37:31;99080.16;;;31.37;31.81
73171;BME280;61381;50.118;19.962;2023-08-12T09:42:34;99071.81;;;30.99;32.95
73171;BME280;61381;50.118;19.962;2023-08-12T09:47:35;99071.75;;;31.06;33.62
73171;BME280;61381;50.118;19.962;2023-08-12T09:52:36;99066.31;;;31.37;31.75
73171;BME280;61381;50.118;19.962;2023-08-12T09:57:42;99064.34;;;30.89;32.93
73171;BME280;61381;50.118;19.962;2023-08-12T10:02:43;99049.41;;;31.66;32.01
73171;BME280;61381;50.118;19.962;2023-08-12T10:07:45;99052.84;;;30.98;36.52
73171;BME280;61381;50.118;19.962;2023-08-12T10:12:49;99039.56;;;30.74;37.64
73171;BME280;61381;50.118;19.962;2023-08-12T10:17:51;99054.25;;;29.97;35.27
73171;BME280;61381;50.118;19.962;2023-08-12T10:22:53;99039.50;;;30.82;37.19
73171;BME280;61381;50.118;19.962;2023-08-12T10:27:55;99040.34;;;30.79;33.55
73171;BME280;61381;50.118;19.962;2023-08-12T10:32:57;99042.53;;;31.02;33.62
73171;BME280;61381;50.118;19.962;2023-08-12T10:37:59;99035.66;;;31.17;35.13
73171;BME280;61381;50.118;19.962;2023-08-12T10:43:01;99031.63;;;30.76;34.47
73171;BME280;61381;50.118;19.962;2023-08-12T10:48:15;99029.00;;;31.11;32.72
73171;BME280;61381;50.118;19.962;2023-08-12T10:53:25;99015.50;;;31.55;33.38
73171;BME280;61381;50.118;19.962;2023-08-12T10:58:30;99010.22;;;31.68;32.59
73171;BME280;61381;50.118;19.962;2023-08-12T11:03:32;99008.44;;;30.63;33.54
73171;BME280;61381;50.118;19.962;2023-08-12T11:08:33;99005.91;;;30.80;34.84
73171;BME280;61381;50.118;19.962;2023-08-12T11:13:46;99004.22;;;30.97;33.41
73171;BME280;61381;50.118;19.962;2023-08-12T11:18:47;98992.94;;;30.73;36.06
73171;BME280;61381;50.118;19.962;2023-08-12T11:23:48;98983.84;;;31.18;33.95
73171;BME280;61381;50.118;19.962;2023-08-12T11:28:53;98982.81;;;31.04;33.70
73171;BME280;61381;50.118;19.962;2023-08-12T11:33:54;98986.31;;;31.77;34.04
73171;BME280;61381;50.118;19.962;2023-08-12T11:38:56;98984.06;;;31.99;33.35
73171;BME280;61381;50.118;19.962;2023-08-12T11:43:58;98984.13;;;31.27;33.51
73171;BME280;61381;50.118;19.962;2023-08-12T11:48:59;98975.25;;;31.43;33.04
73171;BME280;61381;50.118;19.962;2023-08-12T11:54:00;98975.41;;;31.94;32.54
73171;BME280;61381;50.118;19.962;2023-08-12T11:59:02;98967.56;;;32.43;33.10
73171;BME280;61381;50.118;19.962;2023-08-12T12:04:04;98959.88;;;32.00;31.73
73171;BME280;61381;50.118;19.962;2023-08-12T12:09:06;98945.53;;;32.36;32.29
73171;BME280;61381;50.118;19.962;2023-08-12T12:14:09;98956.53;;;31.85;32.44
73171;BME280;61381;50.118;19.962;2023-08-12T12:19:15;98953.56;;;31.99;34.47
73171;BME280;61381;50.118;19.962;2023-08-12T12:24:16;98946.63;;;31.57;33.89
73171;BME280;61381;50.118;19.962;2023-08-12T12:29:19;98943.34;;;31.65;35.79
73171;BME280;61381;50.118;19.962;2023-08-12T12:34:20;98934.06;;;31.79;34.34
73171;BME280;61381;50.118;19.962;2023-08-12T12:39:21;98939.19;;;31.16;34.29
73171;BME280;61381;50.118;19.962;2023-08-12T12:44:23;98940.66;;;32.16;32.58
73171;BME280;61381;50.118;19.962;2023-08-12T12:49:24;98928.31;;;32.45;34.28
73171;BME280;61381;50.118;19.962;2023-08-12T12:54:25;98916.97;;;32.12;33.14
73171;BME280;61381;50.118;19.962;2023-08-12T12:59:27;98914.06;;;32.19;35.01
73171;BME280;61381;50.118;19.962;2023-08-12T13:04:28;98903.84;;;32.40;33.16
73171;BME280;61381;50.118;19.962;2023-08-12T13:09:29;98898.88;;;32.51;34.89
73171;BME280;61381;50.118;19.962;2023-08-12T13:14:31;98902.03;;;32.77;32.40
73171;BME280;61381;50.118;19.962;2023-08-12T13:19:32;98897.28;;;32.30;34.28
73171;BME280;61381;50.118;19.962;2023-08-12T13:24:33;98891.13;;;32.18;33.05
73171;BME280;61381;50.118;19.962;2023-08-12T13:29:35;98888.16;;;32.77;33.45
73171;BME280;61381;50.118;19.962;2023-08-12T13:34:36;98886.13;;;32.77;31.78
73171;BME280;61381;50.118;19.962;2023-08-12T13:39:37;98890.88;;;33.00;32.50
73171;BME280;61381;50.118;19.962;2023-08-12T13:44:39;98883.25;;;32.61;33.67
73171;BME280;61381;50.118;19.962;2023-08-12T13:49:40;98878.84;;;33.07;32.44
73171;BME280;61381;50.118;19.962;2023-08-12T13:54:41;98878.97;;;32.80;34.10
73171;BME280;61381;50.118;19.962;2023-08-12T13:59:43;98874.56;;;33.22;32.96
73171;BME280;61381;50.118;19.962;2023-08-12T14:04:44;98863.41;;;32.62;34.88
73171;BME280;61381;50.118;19.962;2023-08-12T14:09:45;98868.56;;;33.44;33.29
73171;BME280;61381;50.118;19.962;2023-08-12T14:14:47;98865.38;;;32.65;32.50
73171;BME280;61381;50.118;19.962;2023-08-12T14:19:49;98862.34;;;32.56;35.47
73171;BME280;61381;50.118;19.962;2023-08-12T14:24:50;98860.28;;;31.62;34.42
73171;BME280;61381;50.118;19.962;2023-08-12T14:29:52;98842.38;;;30.29;37.57
73171;BME280;61381;50.118;19.962;2023-08-12T14:34:53;98846.06;;;30.60;36.86
73171;BME280;61381;50.118;19.962;2023-08-12T14:39:54;98830.88;;;31.10;36.90
73171;BME280;61381;50.118;19.962;2023-08-12T14:44:56;98827.69;;;31.42;37.08
73171;BME280;61381;50.118;19.962;2023-08-12T14:49:57;98833.00;;;30.99;36.55
73171;BME280;61381;50.118;19.962;2023-08-12T14:54:58;98820.41;;;31.25;37.29
73171;BME280;61381;50.118;19.962;2023-08-12T15:00:01;98828.25;;;31.30;37.74
73171;BME280;61381;50.118;19.962;2023-08-12T15:05:02;98818.44;;;31.53;36.12
73171;BME280;61381;50.118;19.962;2023-08-12T15:10:03;98815.09;;;31.10;36.96
73171;BME280;61381;50.118;19.962;2023-08-12T15:15:06;98804.34;;;30.78;38.03
73171;BME280;61381;50.118;19.962;2023-08-12T15:20:08;98799.22;;;31.42;36.61
73171;BME280;61381;50.118;19.962;2023-08-12T15:25:09;98800.44;;;31.10;37.44
73171;BME280;61381;50.118;19.962;2023-08-12T15:30:11;98791.75;;;30.73;37.88
73171;BME280;61381;50.118;19.962;2023-08-12T15:35:12;98794.72;;;30.90;39.18
73171;BME280;61381;50.118;19.962;2023-08-12T15:40:13;98791.63;;;31.19;36.81
73171;BME280;61381;50.118;19.962;2023-08-12T15:45:16;98791.63;;;31.19;37.46
73171;BME280;61381;50.118;19.962;2023-08-12T15:50:17;98777.72;;;30.91;38.54
73171;BME280;61381;50.118;19.962;2023-08-12T15:55:18;98785.78;;;30.79;38.10
73171;BME280;61381;50.118;19.962;2023-08-12T16:00:20;98766.88;;;31.35;37.44
73171;BME280;61381;50.118;19.962;2023-08-12T16:05:21;98770.94;;;31.27;37.10
73171;BME280;61381;50.118;19.962;2023-08-12T16:10:22;98765.41;;;31.27;38.56
73171;BME280;61381;50.118;19.962;2023-08-12T16:15:24;98768.25;;;31.47;39.05
73171;BME280;61381;50.118;19.962;2023-08-12T16:20:25;98767.97;;;31.41;36.60
73171;BME280;61381;50.118;19.962;2023-08-12T16:25:26;98767.69;;;31.05;38.36
73171;BME280;61381;50.118;19.962;2023-08-12T16:30:28;98767.44;;;31.23;39.25
73171;BME280;61381;50.118;19.962;2023-08-12T16:35:29;98760.13;;;31.09;38.81
73171;BME280;61381;50.118;19.962;2023-08-12T16:40:30;98773.38;;;30.90;40.51
73171;BME280;61381;50.118;19.962;2023-08-12T16:45:33;98757.56;;;30.60;40.77
73171;BME280;61381;50.118;19.962;2023-08-12T16:50:33;98766.16;;;30.69;41.08
73171;BME280;61381;50.118;19.962;2023-08-12T16:55:34;98762.16;;;30.36;41.36
73171;BME280;61381;50.118;19.962;2023-08-12T17:00:37;98769.13;;;30.51;42.14
73171;BME280;61381;50.118;19.962;2023-08-12T17:05:37;98767.25;;;29.99;43.39
73171;BME280;61381;50.118;19.962;2023-08-12T17:10:38;98771.50;;;30.08;42.96
73171;BME280;61381;50.118;19.962;2023-08-12T17:15:41;98762.66;;;29.78;44.32
73171;BME280;61381;50.118;19.962;2023-08-12T17:20:42;98752.81;;;29.77;43.51
73171;BME280;61381;50.118;19.962;2023-08-12T17:25:43;98755.59;;;29.74;45.54
73171;BME280;61381;50.118;19.962;2023-08-12T17:30:45;98764.31;;;29.09;46.72
73171;BME280;61381;50.118;19.962;2023-08-12T17:35:46;98763.19;;;28.95;50.32
73171;BME280;61381;50.118;19.962;2023-08-12T17:40:48;98762.09;;;28.78;52.98
73171;BME280;61381;50.118;19.962;2023-08-12T17:45:50;98761.78;;;28.44;56.34
73171;BME280;61381;50.118;19.962;2023-08-12T17:50:51;98756.72;;;27.88;61.17
73171;BME280;61381;50.118;19.962;2023-08-12T17:55:52;98744.50;;;27.32;60.13
73171;BME280;61381;50.118;19.962;2023-08-12T18:00:54;98752.19;;;26.76;61.19
73171;BME280;61381;50.118;19.962;2023-08-12T18:05:55;98760.28;;;26.47;62.54
73171;BME280;61381;50.118;19.962;2023-08-12T18:10:56;98750.19;;;25.99;64.51
73171;BME280;61381;50.118;19.962;2023-08-12T18:15:59;98753.72;;;25.55;67.54
73171;BME280;61381;50.118;19.962;2023-08-12T18:21:02;98758.78;;;25.15;67.93
73171;BME280;61381;50.118;19.962;2023-08-12T18:26:02;98757.56;;;25.09;68.70
73171;BME280;61381;50.118;19.962;2023-08-12T18:31:05;98765.94;;;24.89;73.19
73171;BME280;61381;50.118;19.962;2023-08-12T18:36:05;98761.13;;;24.49;75.99
73171;BME280;61381;50.118;19.962;2023-08-12T18:41:06;98768.28;;;24.03;79.19
73171;BME280;61381;50.118;19.962;2023-08-12T18:46:09;98769.63;;;23.90;80.39
73171;BME280;61381;50.118;19.962;2023-08-12T18:51:09;98766.00;;;23.40;81.97
73171;BME280;61381;50.118;19.962;2023-08-12T18:56:10;98761.88;;;22.87;80.88
73171;BME280;61381;50.118;19.962;2023-08-12T19:01:13;98762.19;;;22.82;84.30
73171;BME280;61381;50.118;19.962;2023-08-12T19:06:14;98761.38;;;22.62;87.81
73171;BME280;61381;50.118;19.962;2023-08-12T19:11:14;98773.25;;;22.34;88.43
73171;BME280;61381;50.118;19.962;2023-08-12T19:16:17;98766.88;;;21.95;91.61
73171;BME280;61381;50.118;19.962;2023-08-12T19:21:18;98772.75;;;21.65;91.60
73171;BME280;61381;50.118;19.962;2023-08-12T19:26:18;98770.47;;;21.67;91.59
73171;BME280;61381;50.118;19.962;2023-08-12T19:31:21;98765.09;;;21.54;93.14
73171;BME280;61381;50.118;19.962;2023-08-12T19:36:22;98770.81;;;21.49;92.71
73171;BME280;61381;50.118;19.962;2023-08-12T19:41:23;98775.06;;;21.34;93.51
73171;BME280;61381;50.118;19.962;2023-08-12T19:46:25;98772.88;;;21.24;94.79
73171;BME280;61381;50.118;19.962;2023-08-12T19:51:26;98769.88;;;21.01;95.67
73171;BME280;61381;50.118;19.962;2023-08-12T19:56:27;98768.75;;;20.74;98.10
73171;BME280;61381;50.118;19.962;2023-08-12T20:01:29;98773.84;;;20.63;99.23
73171;BME280;61381;50.118;19.962;2023-08-12T20:06:30;98778.22;;;20.27;100.00
73171;BME280;61381;50.118;19.962;2023-08-12T20:11:31;98778.00;;;20.07;100.00
73171;BME280;61381;50.118;19.962;2023-08-12T20:16:33;98774.59;;;20.23;99.33
73171;BME280;61381;50.118;19.962;2023-08-12T20:21:34;98785.59;;;20.14;100.00
73171;BME280;61381;50.118;19.962;2023-08-12T20:26:35;98773.13;;;19.88;100.00
73171;BME280;61381;50.118;19.962;2023-08-12T20:31:37;98779.66;;;19.75;100.00
73171;BME280;61381;50.118;19.962;2023-08-12T20:36:38;98771.06;;;19.73;100.00
73171;BME280;61381;50.118;19.962;2023-08-12T20:41:39;98778.28;;;19.56;100.00
73171;BME280;61381;50.118;19.962;2023-08-12T20:46:41;98783.09;;;19.38;100.00
73171;BME280;61381;50.118;19.962;2023-08-12T20:51:42;98783.16;;;19.17;100.00
73171;BME280;61381;50.118;19.962;2023-08-12T20:56:43;98785.53;;;19.19;100.00
73171;BME280;61381;50.118;19.962;2023-08-12T21:01:45;98782.69;;;18.94;100.00
73171;BME280;61381;50.118;19.962;2023-08-12T21:06:47;98785.66;;;18.80;100.00
73171;BME280;61381;50.118;19.962;2023-08-12T21:11:48;98785.22;;;18.78;100.00
73171;BME280;61381;50.118;19.962;2023-08-12T21:16:50;98785.66;;;18.80;100.00
73171;BME280;61381;50.118;19.962;2023-08-12T21:21:51;98781.03;;;18.81;100.00
73171;BME280;61381;50.118;19.962;2023-08-12T21:26:52;98782.28;;;18.83;100.00
73171;BME280;61381;50.118;19.962;2023-08-12T21:31:54;98776.28;;;18.78;100.00
73171;BME280;61381;50.118;19.962;2023-08-12T21:36:55;98774.81;;;18.59;100.00
73171;BME280;61381;50.118;19.962;2023-08-12T21:41:56;98778.13;;;18.44;100.00
73171;BME280;61381;50.118;19.962;2023-08-12T21:46:58;98782.31;;;18.32;100.00
73171;BME280;61381;50.118;19.962;2023-08-12T21:51:59;98786.97;;;18.32;100.00
73171;BME280;61381;50.118;19.962;2023-08-12T21:57:01;98781.66;;;18.35;100.00
73171;BME280;61381;50.118;19.962;2023-08-12T22:02:04;98771.44;;;18.41;100.00
73171;BME280;61381;50.118;19.962;2023-08-12T22:07:05;98766.47;;;18.43;100.00
73171;BME280;61381;50.118;19.962;2023-08-12T22:12:06;98759.97;;;18.35;100.00
73171;BME280;61381;50.118;19.962;2023-08-12T22:17:09;98752.13;;;18.13;100.00
73171;BME280;61381;50.118;19.962;2023-08-12T22:22:09;98742.13;;;18.05;100.00
73171;BME280;61381;50.118;19.962;2023-08-12T22:27:10;98745.06;;;17.91;100.00
73171;BME280;61381;50.118;19.962;2023-08-12T22:32:13;98737.44;;;17.84;100.00
73171;BME280;61381;50.118;19.962;2023-08-12T22:37:14;98733.00;;;17.79;100.00
73171;BME280;61381;50.118;19.962;2023-08-12T22:42:14;98738.75;;;17.78;100.00
73171;BME280;61381;50.118;19.962;2023-08-12T22:47:17;98740.00;;;17.72;100.00
73171;BME280;61381;50.118;19.962;2023-08-12T22:52:18;98731.94;;;17.63;100.00
73171;BME280;61381;50.118;19.962;2023-08-12T22:57:19;98732.25;;;17.61;100.00
73171;BME280;61381;50.118;19.962;2023-08-12T23:02:21;98731.28;;;17.66;100.00
73171;BME280;61381;50.118;19.962;2023-08-12T23:07:22;98715.69;;;17.63;100.00
73171;BME280;61381;50.118;19.962;2023-08-12T23:12:23;98718.41;;;17.54;100.00
73171;BME280;61381;50.118;19.962;2023-08-12T23:17:25;98718.28;;;17.51;100.00
73171;BME280;61381;50.118;19.962;2023-08-12T23:22:26;98717.84;;;17.78;100.00
73171;BME280;61381;50.118;19.962;2023-08-12T23:27:27;98722.00;;;17.76;100.00
73171;BME280;61381;50.118;19.962;2023-08-12T23:32:30;98726.69;;;17.58;100.00
73171;BME280;61381;50.118;19.962;2023-08-12T23:37:31;98724.47;;;17.60;100.00
73171;BME280;61381;50.118;19.962;2023-08-12T23:42:31;98723.53;;;17.47;100.00
73171;BME280;61381;50.118;19.962;2023-08-12T23:47:34;98722.50;;;17.31;100.00
73171;BME280;61381;50.118;19.962;2023-08-12T23:52:35;98723.94;;;17.28;100.00
73171;BME280;61381;50.118;19.962;2023-08-12T23:57:36;98719.47;;;17.23;100.00
